地図

経路データ

SID SEASON NUMBER BASIN SUBBASIN NAME ISO_TIME NATURE LAT LON WMO_WIND WMO_PRES WMO_AGENCY TRACK_TYPE DIST2LAND LANDFALL IFLAG USA_AGENCY USA_ATCF_ID USA_LAT USA_LON USA_RECORD USA_STATUS USA_WIND USA_PRES USA_SSHS USA_R34_NE USA_R34_SE USA_R34_SW USA_R34_NW USA_R50_NE USA_R50_SE USA_R50_SW USA_R50_NW USA_R64_NE USA_R64_SE USA_R64_SW USA_R64_NW USA_POCI USA_ROCI USA_RMW USA_EYE TOKYO_LAT TOKYO_LON TOKYO_GRADE TOKYO_WIND TOKYO_PRES TOKYO_R50_DIR TOKYO_R50_LONG TOKYO_R50_SHORT TOKYO_R30_DIR TOKYO_R30_LONG TOKYO_R30_SHORT TOKYO_LAND CMA_LAT CMA_LON CMA_CAT CMA_WIND CMA_PRES HKO_LAT HKO_LON HKO_CAT HKO_WIND HKO_PRES NEWDELHI_LAT NEWDELHI_LON NEWDELHI_GRADE NEWDELHI_WIND NEWDELHI_PRES NEWDELHI_CI NEWDELHI_DP NEWDELHI_POCI REUNION_LAT REUNION_LON REUNION_TYPE REUNION_WIND REUNION_PRES REUNION_TNUM REUNION_CI REUNION_RMW REUNION_R34_NE REUNION_R34_SE REUNION_R34_SW REUNION_R34_NW REUNION_R50_NE REUNION_R50_SE REUNION_R50_SW REUNION_R50_NW REUNION_R64_NE REUNION_R64_SE REUNION_R64_SW REUNION_R64_NW BOM_LAT BOM_LON BOM_TYPE BOM_WIND BOM_PRES BOM_TNUM BOM_CI BOM_RMW BOM_R34_NE BOM_R34_SE BOM_R34_SW BOM_R34_NW BOM_R50_NE BOM_R50_SE BOM_R50_SW BOM_R50_NW BOM_R64_NE BOM_R64_SE BOM_R64_SW BOM_R64_NW BOM_ROCI BOM_POCI BOM_EYE BOM_POS_METHOD BOM_PRES_METHOD NADI_LAT NADI_LON NADI_CAT NADI_WIND NADI_PRES WELLINGTON_LAT WELLINGTON_LON WELLINGTON_WIND WELLINGTON_PRES DS824_LAT DS824_LON DS824_STAGE DS824_WIND DS824_PRES TD9636_LAT TD9636_LON TD9636_STAGE TD9636_WIND TD9636_PRES TD9635_LAT TD9635_LON TD9635_WIND TD9635_PRES TD9635_ROCI NEUMANN_LAT NEUMANN_LON NEUMANN_CLASS NEUMANN_WIND NEUMANN_PRES MLC_LAT MLC_LON MLC_CLASS MLC_WIND MLC_PRES USA_GUST BOM_GUST BOM_GUST_PER REUNION_GUST REUNION_GUST_PER USA_SEAHGT USA_SEARAD_NE USA_SEARAD_SE USA_SEARAD_SW USA_SEARAD_NW STORM_SPEED STORM_DIR
1891305N10097 1891 52 NI BB NOT_NAMED 1891-11-01 00:00:00 TS 10.2000 97.1000 main 153 153 _________O____ -1 10.2000 97.1000 TC 34 10 290
1891305N10097 1891 52 NI BB NOT_NAMED 1891-11-01 03:00:00 TS 10.3669 96.6335 main 207 207 _________PO___ -1 10.4503 96.4002 TC 41 10.2000 97.1000 2 12 290
1891305N10097 1891 52 NI BB NOT_NAMED 1891-11-01 06:00:00 TS 10.6011 95.9809 main 273 273 _________OP___ -1 10.7000 95.7000 TC 49 10.4527 96.4023 2 14 290
1891305N10097 1891 52 NI BB NOT_NAMED 1891-11-01 09:00:00 TS 10.8444 95.3013 main 350 350 _________PP___ -1 10.9498 94.9999 TC 56 10.7037 95.7032 2 14 290
1891305N10097 1891 52 NI BB NOT_NAMED 1891-11-01 12:00:00 TS 11.0764 94.6513 main 419 419 _________OP___ -1 11.2000 94.3000 TC 64 10.9529 95.0025 2 14 290
1891305N10097 1891 52 NI BB NOT_NAMED 1891-11-01 15:00:00 TS 11.3287 93.9500 main 505 485 _________PO___ -1 11.4573 93.5999 TC 64 11.2000 94.3000 4 15 290
1891305N10097 1891 52 NI BB NOT_NAMED 1891-11-01 18:00:00 TS 11.5720 93.2479 main 487 483 _________OP___ -1 11.7000 92.9000 TC 64 11.4439 93.5958 4 15 289
1891305N10097 1891 52 NI BB NOT_NAMED 1891-11-01 21:00:00 TS 11.7972 92.5424 main 492 492 _________PP___ -1 11.9149 92.1924 TC 64 11.6794 92.8924 4 14 287
1891305N10097 1891 52 NI BB NOT_NAMED 1891-11-02 00:00:00 TS 12.0001 91.8464 main 509 506 _________OP___ -1 12.1000 91.5000 TC 64 11.9002 92.1927 4 14 286
1891305N10097 1891 52 NI BB NOT_NAMED 1891-11-02 03:00:00 TS 12.1786 91.1749 main 530 530 _________PO___ -1 12.2572 90.8498 TC 64 12.1000 91.5000 4 14 284
1891305N10097 1891 52 NI BB NOT_NAMED 1891-11-02 06:00:00 TS 12.3193 90.5023 main 575 575 _________OP___ -1 12.4000 90.2000 TC 64 12.2387 90.8046 4 14 281
1891305N10097 1891 52 NI BB NOT_NAMED 1891-11-02 09:00:00 TS 12.4485 89.8092 main 622 615 _________PP___ -1 12.5349 89.4998 TC 64 12.3621 90.1186 4 14 282
1891305N10097 1891 52 NI BB NOT_NAMED 1891-11-02 12:00:00 TS 12.6022 89.1241 main 668 668 _________OP___ -1 12.7000 88.8000 TC 64 12.5044 89.4483 4 14 285
1891305N10097 1891 52 NI BB NOT_NAMED 1891-11-02 15:00:00 TS 12.8024 88.4637 main 710 703 _________PO___ -1 12.9049 88.1273 TC 64 12.7000 88.8000 4 14 291
1891305N10097 1891 52 NI BB NOT_NAMED 1891-11-02 18:00:00 TS 13.0963 87.8072 main 703 627 _________OP___ -1 13.2000 87.5000 TC 64 12.9927 88.1144 4 14 299
1891305N10097 1891 52 NI BB NOT_NAMED 1891-11-02 21:00:00 TS 13.4877 87.1746 main 627 558 _________PP___ -1 13.6350 86.8903 TC 64 13.3404 87.4588 4 14 306
1891305N10097 1891 52 NI BB NOT_NAMED 1891-11-03 00:00:00 TS 13.9089 86.6369 main 551 496 _________OP___ -1 14.1000 86.4000 TC 64 13.7179 86.8737 4 12 311
1891305N10097 1891 52 NI BB NOT_NAMED 1891-11-03 03:00:00 TS 14.2824 86.2449 main 489 449 _________PO___ -1 14.4648 86.0897 TC 64 14.1000 86.4000 4 10 318
1891305N10097 1891 52 NI BB NOT_NAMED 1891-11-03 06:00:00 TS 14.6185 85.9820 main 449 410 _________OP___ -1 14.8000 85.9000 TC 64 14.4369 86.0639 4 8 327
1891305N10097 1891 52 NI BB NOT_NAMED 1891-11-03 09:00:00 TS 14.9595 85.7845 main 402 370 _________PP___ -1 15.1425 85.7274 TC 64 14.7765 85.8416 4 8 335
1891305N10097 1891 52 NI BB NOT_NAMED 1891-11-03 12:00:00 TS 15.3139 85.6492 main 363 324 _________OP___ -1 15.5000 85.6000 TC 64 15.1279 85.6985 4 8 342
1891305N10097 1891 52 NI BB NOT_NAMED 1891-11-03 15:00:00 TS 15.6925 85.5425 main 324 282 _________PO___ -1 15.8850 85.4850 TC 64 15.5000 85.6000 4 8 346
1891305N10097 1891 52 NI BB NOT_NAMED 1891-11-03 18:00:00 TS 16.1159 85.4384 main 282 234 _________OP___ -1 16.3000 85.4000 TC 64 15.9318 85.4767 4 9 349
1891305N10097 1891 52 NI BB NOT_NAMED 1891-11-03 21:00:00 TS 16.5762 85.3624 main 234 193 _________PP___ -1 16.7725 85.3350 TC 64 16.3799 85.3899 4 9 352
1891305N10097 1891 52 NI BB NOT_NAMED 1891-11-04 00:00:00 TS 17.0065 85.3165 main 193 169 _________OP___ -1 17.2000 85.3000 TC 64 16.8131 85.3331 4 8 355
1891305N10097 1891 52 NI BB NOT_NAMED 1891-11-04 03:00:00 TS 17.3400 85.2962 main 169 146 _________PO___ -1 17.4800 85.2925 TC 64 17.2000 85.3000 4 6 356
1891305N10097 1891 52 NI BB NOT_NAMED 1891-11-04 06:00:00 TS 17.5961 85.2851 main 146 130 _________OP___ -1 17.7000 85.3000 TC 64 17.4921 85.2702 4 5 357
1891305N10097 1891 52 NI BB NOT_NAMED 1891-11-04 09:00:00 TS 17.8400 85.2775 main 130 107 _________PP___ -1 17.9425 85.2925 TC 64 17.7374 85.2624 4 5 2
1891305N10097 1891 52 NI BB NOT_NAMED 1891-11-04 12:00:00 TS 18.0820 85.2867 main 107 92 _________OP___ -1 18.2000 85.3000 TC 64 17.9640 85.2734 4 5 5
1891305N10097 1891 52 NI BB NOT_NAMED 1891-11-04 15:00:00 TS 18.3463 85.3212 main 92 77 _________PO___ -1 18.4925 85.3425 TC 64 18.2000 85.3000 4 6 6
1891305N10097 1891 52 NI BB NOT_NAMED 1891-11-04 18:00:00 TS 18.6386 85.3438 main 77 61 _________OP___ -1 18.8000 85.4000 TC 64 18.4773 85.2875 4 6 5
1891305N10097 1891 52 NI BB NOT_NAMED 1891-11-04 21:00:00 TS 18.9272 85.3544 main 69 39 _________PP___ -1 19.0849 85.4128 TC 64 18.7696 85.2961 4 6 8
1891305N10097 1891 52 NI BB NOT_NAMED 1891-11-05 00:00:00 TS 19.2386 85.4283 main 39 15 _________OP___ -1 19.4000 85.5000 TC 64 19.0771 85.3565 4 7 21
1891305N10097 1891 52 NI BB NOT_NAMED 1891-11-05 03:00:00 TS 19.6000 85.6237 main 15 0 _________PO___ -1 19.8000 85.7474 TC 64 19.4000 85.5000 4 9 32
1891305N10097 1891 52 NI BB NOT_NAMED 1891-11-05 06:00:00 TS 19.9719 85.9236 main 0 0 _________OP___ -1 20.2000 86.1000 TC 64 19.7438 85.7471 4 9 41
1891305N10097 1891 52 NI BB NOT_NAMED 1891-11-05 09:00:00 TS 20.3075 86.2787 main 0 0 _________PP___ -1 20.5149 86.4777 TC 64 20.1001 86.0796 4 10 47
1891305N10097 1891 52 NI BB NOT_NAMED 1891-11-05 12:00:00 TS 20.6281 86.6862 main 0 0 _________OP___ -1 20.8000 86.9000 TC 64 20.4562 86.4724 4 10 51
1891305N10097 1891 52 NI BB NOT_NAMED 1891-11-05 15:00:00 TS 20.9500 87.1213 main 15 15 _________PO___ -1 21.0999 87.3426 TC 64 20.8000 86.9000 4 10 52
1891305N10097 1891 52 NI BB NOT_NAMED 1891-11-05 18:00:00 TS 21.2591 87.5548 main 39 22 _________OP___ -1 21.4000 87.8000 TC 64 21.1182 87.3096 4 10 53
1891305N10097 1891 52 NI BB NOT_NAMED 1891-11-05 21:00:00 TS 21.5609 87.9955 main 20 0 _________PP___ -1 21.6998 88.2427 TC 64 21.4221 87.7483 4 10 54
1891305N10097 1891 52 NI BB NOT_NAMED 1891-11-06 00:00:00 TS 21.8575 88.4564 main 0 0 _________OP___ -1 22.0000 88.7000 TC 64 21.7149 88.2128 4 11 56
1891305N10097 1891 52 NI BB NOT_NAMED 1891-11-06 03:00:00 TS 22.1537 88.9426 main 0 0 _________PO___ -1 22.3073 89.1851 TC 55 22.0000 88.7000 4 11 58
1891305N10097 1891 52 NI BB NOT_NAMED 1891-11-06 06:00:00 TS 22.4409 89.4460 main 0 0 _________OP___ -1 22.6000 89.7000 TC 47 22.2817 89.1920 4 11 60
1891305N10097 1891 52 NI BB NOT_NAMED 1891-11-06 09:00:00 TS 22.7033 89.9707 main 0 0 _________PP___ -1 22.8498 90.2354 TC 38 22.5568 89.7061 4 11 62
1891305N10097 1891 52 NI BB NOT_NAMED 1891-11-06 12:00:00 TS 22.9642 90.5211 main 0 0 _________OP___ -1 23.1000 90.8000 TC 30 22.8284 90.2421 4 12 62
1891305N10097 1891 52 NI BB NOT_NAMED 1891-11-06 15:00:00 TS 23.2499 91.0963 main 0 0 _________PO___ -1 23.3999 91.3925 TC 30 23.1000 90.8000 1 12 62
1891305N10097 1891 52 NI BB NOT_NAMED 1891-11-06 18:00:00 TS 23.5137 91.6451 main 0 0 _________OP___ -1 23.7000 92.0000 TC 30 23.3739 91.3790 1 12 63
1891305N10097 1891 52 NI BB NOT_NAMED 1891-11-06 21:00:00 TS 23.7749 92.2260 main 0 0 _________PP___ -1 23.9629 92.6022 TC 30 23.6495 91.9752 1 12 64
1891305N10097 1891 52 NI BB NOT_NAMED 1891-11-07 00:00:00 TS 24.0169 92.7892 main 0 0 _________OP___ -1 24.2000 93.2000 TC 30 23.9254 92.5838 1 10 64
1891305N10097 1891 52 NI BB NOT_NAMED 1891-11-07 03:00:00 NR 24.2000 93.2000 main 0 __________O___ -1 TC 24.2000 93.2000 1 8 64

IBTrACS Databaseについて

本データベースは、米国NOAAが公開する1842年以降の世界の熱帯低気圧のベストトラックデータアーカイブInternational Best Track Archive for Climate Stewardship (IBTrACS)を、ウェブで閲覧しやすい形式に変換したものです。

最終更新日:2021-10-25